Time;durP1;ratioP1;P1;durP2;ratioP2;P2;SDS_P1;SDS_P2;PMS_P1;PMS_P2;Temp;Humidity;BMP_temperature;BMP_pressure;BME280_temperature;BME280_humidity;BME280_pressure;Samples;Min_cycle;Max_cycle;Signal;HPM_P1;HPM_P2
2023/08/23 00:00:10;;;;;;;6.32;3.90;;;;;;;;;;5014337;28;20086;-69
2023/08/23 00:02:35;;;;;;;5.53;3.63;;;;;;;;;;5013836;28;20033;-69
2023/08/23 00:05:00;;;;;;;4.45;3.00;;;;;;;;;;5018105;28;20045;-69
2023/08/23 00:07:26;;;;;;;5.05;3.50;;;;;;;;;;5005936;28;20053;-69
2023/08/23 00:09:52;;;;;;;10.80;3.78;;;;;;;;;;5016887;28;20116;-69
2023/08/23 00:12:17;;;;;;;6.78;3.75;;;;;;;;;;5019664;28;20562;-69
2023/08/23 00:14:43;;;;;;;7.15;3.50;;;;;;;;;;5015642;28;20036;-69
2023/08/23 00:17:08;;;;;;;5.60;3.33;;;;;;;;;;5013187;28;20038;-69
2023/08/23 00:19:33;;;;;;;6.10;3.67;;;;;;;;;;5017295;28;20038;-69
2023/08/23 00:21:59;;;;;;;4.72;3.70;;;;;;;;;;5019351;28;20120;-69
2023/08/23 00:24:24;;;;;;;6.32;3.67;;;;;;;;;;5015645;28;20037;-69
2023/08/23 00:26:49;;;;;;;5.63;3.83;;;;;;;;;;5012653;28;20423;-69
2023/08/23 00:29:15;;;;;;;6.00;3.90;;;;;;;;;;5006796;28;20030;-69
2023/08/23 00:31:40;;;;;;;4.20;3.63;;;;;;;;;;4998660;28;20589;-69
2023/08/23 00:34:06;;;;;;;9.05;3.80;;;;;;;;;;4994223;28;20042;-69
2023/08/23 00:36:31;;;;;;;5.60;3.88;;;;;;;;;;4978076;28;20769;-69
2023/08/23 00:38:57;;;;;;;5.40;3.58;;;;;;;;;;4973664;28;20416;-69
2023/08/23 00:41:23;;;;;;;4.43;3.50;;;;;;;;;;4987559;28;20105;-69
2023/08/23 00:43:49;;;;;;;6.10;3.90;;;;;;;;;;4968641;28;20153;-69
2023/08/23 00:46:15;;;;;;;5.28;3.70;;;;;;;;;;4968079;28;20455;-69
2023/08/23 00:48:41;;;;;;;7.57;3.75;;;;;;;;;;5006335;28;20534;-69
2023/08/23 00:51:09;;;;;;;5.32;3.45;;;;;;;;;;5005233;28;20044;-69
2023/08/23 00:53:36;;;;;;;5.35;3.67;;;;;;;;;;4997720;28;20161;-69
2023/08/23 00:56:01;;;;;;;4.40;3.55;;;;;;;;;;5011034;28;20041;-69
2023/08/23 00:58:27;;;;;;;6.25;3.50;;;;;;;;;;4994350;28;20026;-69
2023/08/23 01:00:53;;;;;;;6.05;3.88;;;;;;;;;;5005664;28;20034;-69
2023/08/23 01:03:19;;;;;;;5.95;4.05;;;;;;;;;;4992853;28;20081;-69
2023/08/23 01:05:44;;;;;;;6.07;4.53;;;;;;;;;;4988698;28;20075;-69
2023/08/23 01:08:33;;;;;;;5.50;3.55;;;;;;;;;;5005466;28;20423;-69
2023/08/23 01:11:22;;;;;;;6.55;3.58;;;;;;;;;;5005520;28;20030;-69
2023/08/23 01:14:13;;;;;;;7.03;4.05;;;;;;;;;;5005441;28;20038;-69
2023/08/23 01:16:42;;;;;;;7.68;3.67;;;;;;;;;;4974788;28;20046;-69
2023/08/23 01:19:28;;;;;;;5.95;3.92;;;;;;;;;;4985886;28;20319;-66
2023/08/23 01:21:56;;;;;;;7.68;3.95;;;;;;;;;;4993786;28;20149;-66
2023/08/23 01:24:22;;;;;;;6.30;3.90;;;;;;;;;;5005261;28;20479;-69
2023/08/23 01:26:48;;;;;;;9.23;4.25;;;;;;;;;;4987245;28;20499;-69
2023/08/23 01:29:14;;;;;;;7.15;4.32;;;;;;;;;;5005570;28;20053;-69
2023/08/23 01:31:43;;;;;;;7.10;4.40;;;;;;;;;;5009151;28;20038;-69
2023/08/23 01:34:17;;;;;;;7.40;3.95;;;;;;;;;;5017467;28;20042;-69
2023/08/23 01:36:44;;;;;;;6.50;4.00;;;;;;;;;;5000824;28;20085;-69
2023/08/23 01:39:10;;;;;;;5.65;3.92;;;;;;;;;;4998616;28;20038;-69
2023/08/23 01:41:37;;;;;;;10.05;4.28;;;;;;;;;;4985298;28;20447;-69
2023/08/23 01:44:02;;;;;;;5.65;3.50;;;;;;;;;;4998162;28;20077;-69
2023/08/23 01:46:28;;;;;;;7.03;3.83;;;;;;;;;;4997843;28;20046;-69
2023/08/23 01:48:53;;;;;;;8.52;4.32;;;;;;;;;;4985703;28;20424;-69
2023/08/23 01:51:18;;;;;;;8.13;4.47;;;;;;;;;;4973018;28;20093;-69
2023/08/23 01:53:44;;;;;;;6.95;4.35;;;;;;;;;;5005451;28;20052;-69
2023/08/23 01:56:09;;;;;;;9.93;4.30;;;;;;;;;;4988621;28;20551;-69
2023/08/23 01:58:34;;;;;;;6.50;3.80;;;;;;;;;;4985430;28;20811;-69
2023/08/23 02:01:00;;;;;;;9.23;4.25;;;;;;;;;;4989424;28;20134;-69
2023/08/23 02:03:25;;;;;;;6.35;4.38;;;;;;;;;;4997869;28;20097;-69
2023/08/23 02:05:53;;;;;;;8.18;4.78;;;;;;;;;;4972507;28;20038;-69
2023/08/23 02:08:19;;;;;;;8.23;4.63;;;;;;;;;;4993516;28;20108;-69
2023/08/23 02:10:44;;;;;;;7.50;4.63;;;;;;;;;;4991889;28;20121;-69
2023/08/23 02:13:09;;;;;;;7.18;4.50;;;;;;;;;;4992877;28;20062;-69
2023/08/23 02:15:35;;;;;;;9.70;4.72;;;;;;;;;;4976347;28;20074;-69
2023/08/23 02:18:00;;;;;;;9.35;4.72;;;;;;;;;;4998578;28;20551;-69
2023/08/23 02:20:26;;;;;;;8.90;4.40;;;;;;;;;;4998764;28;20033;-68
2023/08/23 02:22:51;;;;;;;8.48;5.03;;;;;;;;;;4997026;28;20038;-69
2023/08/23 02:25:16;;;;;;;7.03;4.05;;;;;;;;;;4996603;28;20050;-69
2023/08/23 02:27:42;;;;;;;6.05;4.47;;;;;;;;;;4998235;28;20141;-69
2023/08/23 02:30:08;;;;;;;6.70;4.13;;;;;;;;;;4992976;28;20078;-69
2023/08/23 02:32:33;;;;;;;6.68;4.18;;;;;;;;;;4995818;28;20772;-69
2023/08/23 02:34:59;;;;;;;6.47;4.00;;;;;;;;;;4984614;28;20587;-69
2023/08/23 02:37:25;;;;;;;8.15;4.32;;;;;;;;;;4988103;28;20173;-69
2023/08/23 02:39:50;;;;;;;7.25;4.40;;;;;;;;;;4978832;28;20112;-69
2023/08/23 02:42:15;;;;;;;8.00;4.45;;;;;;;;;;4990428;28;20044;-69
2023/08/23 02:44:41;;;;;;;7.30;4.15;;;;;;;;;;4984474;28;20480;-69
2023/08/23 02:47:06;;;;;;;7.35;4.07;;;;;;;;;;4983535;28;20385;-69
2023/08/23 02:49:31;;;;;;;7.18;4.22;;;;;;;;;;4976212;28;20470;-69
2023/08/23 02:51:57;;;;;;;7.75;4.90;;;;;;;;;;4979960;28;20512;-68
2023/08/23 02:54:22;;;;;;;6.13;4.15;;;;;;;;;;4972017;28;20501;-69
2023/08/23 02:56:47;;;;;;;7.95;4.53;;;;;;;;;;4998296;28;20025;-68
2023/08/23 02:59:13;;;;;;;7.57;4.15;;;;;;;;;;5008094;28;20611;-69
2023/08/23 03:01:38;;;;;;;10.88;4.60;;;;;;;;;;5012912;28;20033;-69
2023/08/23 03:04:04;;;;;;;7.80;4.85;;;;;;;;;;5013362;28;20034;-69
2023/08/23 03:06:29;;;;;;;5.53;4.30;;;;;;;;;;5004187;28;20072;-69
2023/08/23 03:08:54;;;;;;;6.28;4.30;;;;;;;;;;5014188;28;20384;-69
2023/08/23 03:11:20;;;;;;;7.78;4.43;;;;;;;;;;5019177;28;20075;-69
2023/08/23 03:13:45;;;;;;;9.00;4.35;;;;;;;;;;5020202;28;20033;-69
2023/08/23 03:16:10;;;;;;;7.70;4.43;;;;;;;;;;5016073;28;20136;-69
2023/08/23 03:18:36;;;;;;;8.30;4.43;;;;;;;;;;5013817;28;20771;-69
2023/08/23 03:21:01;;;;;;;10.35;4.03;;;;;;;;;;5017618;28;20064;-68
2023/08/23 03:23:26;;;;;;;10.40;4.22;;;;;;;;;;5020562;28;20037;-69
2023/08/23 03:25:52;;;;;;;6.25;4.13;;;;;;;;;;5016116;28;20098;-69
2023/08/23 03:28:17;;;;;;;8.15;4.13;;;;;;;;;;5013962;28;20120;-69
2023/08/23 03:30:43;;;;;;;6.05;3.80;;;;;;;;;;5016625;28;20048;-69
2023/08/23 03:33:08;;;;;;;7.28;4.10;;;;;;;;;;5019703;28;20026;-69
2023/08/23 03:35:34;;;;;;;8.65;4.60;;;;;;;;;;5015392;28;20034;-69
2023/08/23 03:37:59;;;;;;;6.68;4.20;;;;;;;;;;5015923;28;20043;-69
2023/08/23 03:40:25;;;;;;;6.40;4.63;;;;;;;;;;4996003;28;20388;-69
2023/08/23 03:42:50;;;;;;;8.23;4.88;;;;;;;;;;5017361;28;20057;-69
2023/08/23 03:45:17;;;;;;;7.82;4.72;;;;;;;;;;5002054;28;20034;-68
2023/08/23 03:47:43;;;;;;;12.40;4.50;;;;;;;;;;5020754;28;20079;-69
2023/08/23 03:50:09;;;;;;;7.97;5.20;;;;;;;;;;5025600;28;20041;-69
2023/08/23 03:52:35;;;;;;;10.98;4.65;;;;;;;;;;5016349;28;20042;-69
2023/08/23 03:55:01;;;;;;;9.20;4.82;;;;;;;;;;5020081;28;20132;-69
2023/08/23 03:57:26;;;;;;;6.30;4.47;;;;;;;;;;5016857;28;20112;-69
2023/08/23 03:59:51;;;;;;;6.43;4.47;;;;;;;;;;5013175;28;20037;-69
2023/08/23 04:02:17;;;;;;;8.18;4.45;;;;;;;;;;5015635;28;20022;-69
2023/08/23 04:04:42;;;;;;;8.80;4.93;;;;;;;;;;5017270;28;20080;-69
2023/08/23 04:07:09;;;;;;;8.98;5.22;;;;;;;;;;5019145;28;20485;-69
2023/08/23 04:09:34;;;;;;;6.03;4.63;;;;;;;;;;5013905;28;20034;-69
2023/08/23 04:12:00;;;;;;;8.40;4.78;;;;;;;;;;5012582;28;20079;-69
2023/08/23 04:14:25;;;;;;;11.93;5.05;;;;;;;;;;5018677;28;20052;-69
2023/08/23 04:16:50;;;;;;;9.55;4.60;;;;;;;;;;5019244;28;20065;-69
2023/08/23 04:19:16;;;;;;;10.02;5.18;;;;;;;;;;5014402;28;20078;-69
2023/08/23 04:21:41;;;;;;;10.23;4.88;;;;;;;;;;5012658;28;20050;-69
2023/08/23 04:24:06;;;;;;;10.38;4.35;;;;;;;;;;5017812;28;20046;-69
2023/08/23 04:26:32;;;;;;;8.00;5.05;;;;;;;;;;5019254;28;20029;-69
2023/08/23 04:28:57;;;;;;;8.77;4.72;;;;;;;;;;5014324;28;20044;-69
2023/08/23 04:31:23;;;;;;;6.28;4.35;;;;;;;;;;5011738;28;20049;-69
2023/08/23 04:33:48;;;;;;;7.20;4.80;;;;;;;;;;5016639;28;20033;-69
2023/08/23 04:36:13;;;;;;;10.65;5.18;;;;;;;;;;5013808;28;20562;-69
2023/08/23 04:38:39;;;;;;;11.55;5.82;;;;;;;;;;5019159;28;20017;-69
2023/08/23 04:41:05;;;;;;;15.07;5.47;;;;;;;;;;5013550;28;20037;-69
2023/08/23 04:43:31;;;;;;;9.05;5.35;;;;;;;;;;5012339;28;20041;-69
2023/08/23 04:45:58;;;;;;;11.00;5.47;;;;;;;;;;5016933;28;20042;-69
2023/08/23 04:48:24;;;;;;;10.75;5.50;;;;;;;;;;5016072;28;20052;-69
2023/08/23 04:50:53;;;;;;;11.98;5.32;;;;;;;;;;5016185;28;20030;-69
2023/08/23 04:53:19;;;;;;;12.30;5.95;;;;;;;;;;4999847;28;20025;-69
2023/08/23 04:55:44;;;;;;;15.27;7.70;;;;;;;;;;5015584;28;20030;-69
2023/08/23 04:58:10;;;;;;;14.02;7.22;;;;;;;;;;5018777;28;20034;-69
2023/08/23 05:00:35;;;;;;;11.40;6.50;;;;;;;;;;5015268;28;20079;-69
2023/08/23 05:03:01;;;;;;;13.05;7.18;;;;;;;;;;5012562;28;20029;-69
2023/08/23 05:05:26;;;;;;;16.75;7.60;;;;;;;;;;4995008;28;20065;-69
2023/08/23 05:07:52;;;;;;;11.68;7.20;;;;;;;;;;5000531;28;20084;-69
2023/08/23 05:10:18;;;;;;;11.95;7.22;;;;;;;;;;5019597;28;20041;-69
2023/08/23 05:12:43;;;;;;;10.63;6.25;;;;;;;;;;5015842;28;20040;-69
2023/08/23 05:15:09;;;;;;;11.60;6.57;;;;;;;;;;5017703;28;20030;-69
2023/08/23 05:17:34;;;;;;;9.63;5.82;;;;;;;;;;5019313;28;20024;-69
2023/08/23 05:19:59;;;;;;;15.35;6.75;;;;;;;;;;5017946;28;20044;-66
2023/08/23 05:22:25;;;;;;;11.80;7.03;;;;;;;;;;5011822;28;20033;-68
2023/08/23 05:24:50;;;;;;;13.70;7.38;;;;;;;;;;5011376;28;20163;-68
2023/08/23 05:27:15;;;;;;;10.73;6.13;;;;;;;;;;5016508;28;20034;-68
2023/08/23 05:29:41;;;;;;;12.98;6.53;;;;;;;;;;5018167;28;20033;-68
2023/08/23 05:32:06;;;;;;;13.05;6.80;;;;;;;;;;5011672;28;20128;-68
2023/08/23 05:34:31;;;;;;;13.93;7.85;;;;;;;;;;5011400;28;20065;-68
2023/08/23 05:36:57;;;;;;;15.20;7.35;;;;;;;;;;5011056;28;20038;-68
2023/08/23 05:39:22;;;;;;;10.93;7.50;;;;;;;;;;5017591;28;20140;-69
2023/08/23 05:41:47;;;;;;;13.73;7.50;;;;;;;;;;5017654;28;20682;-68
2023/08/23 05:44:13;;;;;;;17.00;8.07;;;;;;;;;;5012208;28;20478;-68
2023/08/23 05:46:38;;;;;;;18.50;8.00;;;;;;;;;;4986769;28;20057;-68
2023/08/23 05:49:03;;;;;;;13.32;8.02;;;;;;;;;;4998136;28;20033;-68
2023/08/23 05:51:29;;;;;;;19.13;8.30;;;;;;;;;;4997076;28;20045;-68
2023/08/23 05:53:54;;;;;;;14.27;7.75;;;;;;;;;;5012139;28;20028;-68
2023/08/23 05:56:19;;;;;;;19.05;8.38;;;;;;;;;;5010870;28;20502;-68
2023/08/23 05:58:45;;;;;;;15.68;8.25;;;;;;;;;;5016271;28;20070;-68
2023/08/23 06:01:10;;;;;;;13.60;8.02;;;;;;;;;;5017740;28;20034;-68
2023/08/23 06:03:36;;;;;;;12.02;8.00;;;;;;;;;;5003729;28;20458;-68
2023/08/23 06:06:02;;;;;;;15.27;7.70;;;;;;;;;;4973205;28;20899;-68
2023/08/23 06:08:28;;;;;;;15.63;8.07;;;;;;;;;;5021961;28;20080;-68
2023/08/23 06:10:53;;;;;;;11.35;7.85;;;;;;;;;;4972629;28;20118;-68
2023/08/23 06:13:18;;;;;;;12.63;7.53;;;;;;;;;;4983430;28;20026;-68
2023/08/23 06:15:44;;;;;;;12.65;7.93;;;;;;;;;;5003316;28;20066;-68
2023/08/23 06:18:09;;;;;;;15.55;7.95;;;;;;;;;;5018835;28;20091;-68
2023/08/23 06:20:35;;;;;;;22.67;8.50;;;;;;;;;;5015254;28;20017;-68
2023/08/23 06:23:00;;;;;;;31.15;9.40;;;;;;;;;;5000646;28;20042;-68
2023/08/23 06:25:25;;;;;;;24.17;8.93;;;;;;;;;;5015972;28;20099;-68
2023/08/23 06:27:51;;;;;;;20.80;9.52;;;;;;;;;;5022406;28;20117;-68
2023/08/23 06:30:16;;;;;;;20.02;9.35;;;;;;;;;;5008781;28;20096;-68
2023/08/23 06:32:48;;;;;;;19.83;9.35;;;;;;;;;;4992410;28;20439;-68
2023/08/23 06:35:14;;;;;;;15.13;9.13;;;;;;;;;;5028651;28;20051;-68
2023/08/23 06:37:41;;;;;;;16.15;9.27;;;;;;;;;;5031954;28;20029;-68
2023/08/23 06:40:08;;;;;;;18.50;10.07;;;;;;;;;;5018554;28;20056;-68
2023/08/23 06:42:34;;;;;;;19.80;10.48;;;;;;;;;;5020081;28;20072;-68
2023/08/23 06:44:59;;;;;;;17.13;9.73;;;;;;;;;;5024583;28;20025;-68
2023/08/23 06:47:25;;;;;;;23.67;9.70;;;;;;;;;;5018678;28;20029;-68
2023/08/23 06:49:50;;;;;;;18.83;9.43;;;;;;;;;;5030212;28;20495;-68
2023/08/23 06:52:15;;;;;;;18.90;9.73;;;;;;;;;;5029984;28;20033;-68
2023/08/23 06:54:41;;;;;;;25.85;11.23;;;;;;;;;;5024849;28;20053;-68
2023/08/23 06:57:06;;;;;;;28.85;12.25;;;;;;;;;;5029643;28;20041;-68
2023/08/23 06:59:32;;;;;;;24.10;10.98;;;;;;;;;;5030553;28;20032;-68
2023/08/23 07:01:57;;;;;;;28.35;11.32;;;;;;;;;;5027776;28;20077;-68
2023/08/23 07:04:22;;;;;;;20.65;11.55;;;;;;;;;;5025035;28;20052;-68
2023/08/23 07:06:48;;;;;;;30.42;13.40;;;;;;;;;;5027786;28;20033;-69
2023/08/23 07:09:13;;;;;;;27.40;12.88;;;;;;;;;;5026286;28;20042;-68
2023/08/23 07:11:38;;;;;;;27.00;12.40;;;;;;;;;;5030835;28;20748;-69
2023/08/23 07:14:04;;;;;;;26.30;12.88;;;;;;;;;;5029782;28;20060;-69
2023/08/23 07:16:29;;;;;;;25.67;12.57;;;;;;;;;;5029607;28;20060;-69
2023/08/23 07:18:55;;;;;;;31.58;12.38;;;;;;;;;;4995466;28;20075;-69
2023/08/23 07:21:20;;;;;;;26.35;12.73;;;;;;;;;;5016795;28;20044;-68
2023/08/23 07:23:45;;;;;;;23.73;11.82;;;;;;;;;;5012889;28;20034;-69
2023/08/23 07:26:11;;;;;;;26.42;11.43;;;;;;;;;;5025451;28;20037;-69
2023/08/23 07:28:36;;;;;;;26.75;12.30;;;;;;;;;;5027024;28;20033;-69
2023/08/23 07:31:03;;;;;;;23.05;11.27;;;;;;;;;;5022321;28;20532;-68
2023/08/23 07:33:28;;;;;;;22.55;11.25;;;;;;;;;;5018044;28;20041;-68
2023/08/23 07:36:00;;;;;;;21.98;10.13;;;;;;;;;;5006384;28;20038;-68
2023/08/23 07:38:27;;;;;;;23.60;11.02;;;;;;;;;;4987823;28;20113;-68
2023/08/23 07:41:01;;;;;;;21.27;11.30;;;;;;;;;;5006495;28;20053;-68
2023/08/23 07:43:26;;;;;;;20.48;9.93;;;;;;;;;;5006242;28;20034;-68
2023/08/23 07:45:54;;;;;;;24.58;9.93;;;;;;;;;;5015034;28;20044;-68
2023/08/23 07:48:19;;;;;;;18.45;9.18;;;;;;;;;;5025190;28;20586;-68
2023/08/23 07:50:48;;;;;;;22.75;10.70;;;;;;;;;;5024301;28;20101;-68
2023/08/23 07:53:13;;;;;;;25.92;12.65;;;;;;;;;;5022230;28;20052;-68
2023/08/23 07:55:38;;;;;;;25.40;12.05;;;;;;;;;;5026755;28;20046;-68
2023/08/23 07:58:04;;;;;;;17.83;10.10;;;;;;;;;;5024038;28;20096;-68
2023/08/23 08:00:29;;;;;;;24.00;11.63;;;;;;;;;;5021781;28;20438;-68
2023/08/23 08:02:54;;;;;;;25.15;12.73;;;;;;;;;;5017861;28;20069;-68
2023/08/23 08:05:20;;;;;;;22.52;10.57;;;;;;;;;;5024906;28;20060;-68
2023/08/23 08:07:45;;;;;;;26.25;14.15;;;;;;;;;;5022726;28;20041;-68
2023/08/23 08:10:11;;;;;;;21.48;11.13;;;;;;;;;;4995580;28;20392;-68
2023/08/23 08:12:36;;;;;;;21.58;11.27;;;;;;;;;;5001097;28;20410;-68
2023/08/23 08:15:05;;;;;;;26.02;12.48;;;;;;;;;;5007063;28;20057;-68
2023/08/23 08:17:31;;;;;;;23.27;12.82;;;;;;;;;;5007488;28;20026;-68
2023/08/23 08:19:56;;;;;;;23.75;12.23;;;;;;;;;;5007043;28;20152;-68
2023/08/23 08:22:22;;;;;;;22.50;12.05;;;;;;;;;;5012966;28;20911;-68
2023/08/23 08:24:47;;;;;;;23.15;11.82;;;;;;;;;;4997079;28;20188;-68
2023/08/23 08:27:12;;;;;;;19.95;11.40;;;;;;;;;;5025751;28;20045;-68
2023/08/23 08:29:38;;;;;;;19.05;10.25;;;;;;;;;;5007964;28;20025;-68
2023/08/23 08:32:03;;;;;;;21.17;10.43;;;;;;;;;;5025480;28;20041;-68
2023/08/23 08:34:29;;;;;;;22.13;10.65;;;;;;;;;;4993931;28;20034;-68
2023/08/23 08:36:54;;;;;;;22.50;10.82;;;;;;;;;;4993572;28;20038;-68
2023/08/23 08:39:20;;;;;;;20.27;10.75;;;;;;;;;;4997659;28;20034;-68
2023/08/23 08:41:46;;;;;;;20.60;10.70;;;;;;;;;;5008497;28;20531;-68
2023/08/23 08:44:12;;;;;;;17.20;10.13;;;;;;;;;;5007156;28;20049;-68
2023/08/23 08:46:39;;;;;;;17.60;10.02;;;;;;;;;;5012861;28;20040;-68
2023/08/23 08:49:04;;;;;;;20.40;10.57;;;;;;;;;;4974992;28;20038;-68
2023/08/23 08:51:35;;;;;;;15.95;10.10;;;;;;;;;;4957790;28;20041;-68
2023/08/23 08:54:01;;;;;;;19.58;10.13;;;;;;;;;;4964875;28;20608;-70
2023/08/23 08:56:27;;;;;;;19.52;10.15;;;;;;;;;;4976212;28;20336;-68
2023/08/23 08:58:54;;;;;;;20.13;8.88;;;;;;;;;;4958843;28;20124;-68
2023/08/23 09:01:21;;;;;;;18.83;9.60;;;;;;;;;;4957766;28;20037;-68
2023/08/23 09:03:47;;;;;;;19.52;9.00;;;;;;;;;;4955094;28;20033;-67
2023/08/23 09:06:13;;;;;;;16.73;9.00;;;;;;;;;;4972257;28;20048;-69
2023/08/23 09:08:38;;;;;;;17.02;7.88;;;;;;;;;;5022962;28;20021;-70
2023/08/23 09:11:04;;;;;;;14.45;8.20;;;;;;;;;;5022196;28;20501;-70
2023/08/23 09:13:29;;;;;;;15.30;7.85;;;;;;;;;;5005091;28;20073;-70
2023/08/23 09:15:57;;;;;;;15.27;7.43;;;;;;;;;;5010334;28;20033;-69
2023/08/23 09:18:23;;;;;;;13.68;7.32;;;;;;;;;;5018054;28;20054;-69
2023/08/23 09:20:49;;;;;;;14.25;6.57;;;;;;;;;;5003761;28;20026;-69
2023/08/23 09:23:14;;;;;;;14.10;7.30;;;;;;;;;;5002297;28;20030;-69
2023/08/23 09:25:40;;;;;;;13.02;6.75;;;;;;;;;;4990766;28;20048;-69
2023/08/23 09:28:11;;;;;;;12.00;6.78;;;;;;;;;;5004430;28;20106;-69
2023/08/23 09:30:37;;;;;;;15.68;6.47;;;;;;;;;;5005085;28;20132;-68
2023/08/23 09:33:02;;;;;;;13.82;6.57;;;;;;;;;;4997497;28;20092;-68
2023/08/23 09:35:29;;;;;;;10.55;5.60;;;;;;;;;;5018055;28;20492;-69
2023/08/23 09:37:54;;;;;;;9.60;5.53;;;;;;;;;;5002419;28;20514;-69
2023/08/23 09:40:25;;;;;;;11.35;6.40;;;;;;;;;;5003073;28;20065;-68
2023/08/23 09:42:52;;;;;;;12.43;5.93;;;;;;;;;;4987539;28;20512;-68
2023/08/23 09:45:22;;;;;;;10.70;4.82;;;;;;;;;;4958894;28;20041;-68
2023/08/23 09:47:51;;;;;;;9.38;4.78;;;;;;;;;;5005800;28;20045;-68
2023/08/23 09:50:18;;;;;;;8.85;4.70;;;;;;;;;;4987727;28;20021;-69
2023/08/23 09:52:44;;;;;;;8.93;5.43;;;;;;;;;;4995714;28;20038;-68
2023/08/23 09:55:13;;;;;;;7.72;4.57;;;;;;;;;;4996410;28;20730;-69
2023/08/23 09:57:40;;;;;;;8.63;5.10;;;;;;;;;;4996135;28;20048;-68
2023/08/23 10:00:07;;;;;;;7.18;3.95;;;;;;;;;;5009221;28;20514;-68
2023/08/23 10:02:33;;;;;;;6.68;3.35;;;;;;;;;;5011535;28;20144;-69
2023/08/23 10:05:00;;;;;;;9.50;4.03;;;;;;;;;;4979233;28;20186;-69
2023/08/23 10:07:26;;;;;;;9.23;4.40;;;;;;;;;;4927053;28;20049;-68
2023/08/23 10:09:52;;;;;;;5.45;3.17;;;;;;;;;;4929987;28;20034;-68
2023/08/23 10:12:18;;;;;;;3.78;2.50;;;;;;;;;;4957165;28;20112;-68
2023/08/23 10:14:48;;;;;;;4.22;2.53;;;;;;;;;;5013602;28;20031;-69
2023/08/23 10:17:16;;;;;;;3.95;2.10;;;;;;;;;;5009954;28;20056;-69
2023/08/23 10:19:47;;;;;;;8.82;4.00;;;;;;;;;;5010193;28;20523;-69
2023/08/23 10:22:13;;;;;;;7.90;2.67;;;;;;;;;;5015326;28;20045;-69
2023/08/23 10:24:39;;;;;;;5.13;2.40;;;;;;;;;;5012246;28;20044;-69
2023/08/23 10:27:08;;;;;;;5.25;2.67;;;;;;;;;;5004021;28;20025;-69
2023/08/23 10:29:37;;;;;;;4.20;2.50;;;;;;;;;;5008347;28;20117;-69
2023/08/23 10:32:10;;;;;;;9.40;2.90;;;;;;;;;;5009610;28;20434;-69
2023/08/23 10:34:38;;;;;;;6.75;2.45;;;;;;;;;;5009039;28;20053;-69
2023/08/23 10:37:18;;;;;;;15.32;4.78;;;;;;;;;;5009187;28;20034;-69
2023/08/23 10:39:54;;;;;;;12.13;3.75;;;;;;;;;;5012535;28;20034;-69
2023/08/23 10:42:21;;;;;;;5.97;3.88;;;;;;;;;;5014936;28;20048;-69
2023/08/23 10:44:53;;;;;;;5.93;3.13;;;;;;;;;;4996303;28;20030;-68
2023/08/23 10:47:19;;;;;;;8.65;4.13;;;;;;;;;;4996368;28;20052;-69
2023/08/23 10:49:46;;;;;;;6.00;3.03;;;;;;;;;;4997590;28;20040;-69
2023/08/23 10:52:11;;;;;;;5.85;3.15;;;;;;;;;;5008518;28;20172;-68
2023/08/23 10:54:37;;;;;;;5.15;2.65;;;;;;;;;;5014488;28;20519;-69
2023/08/23 10:57:02;;;;;;;8.68;3.50;;;;;;;;;;4998613;28;20141;-69
2023/08/23 10:59:28;;;;;;;6.70;3.55;;;;;;;;;;5000175;28;20026;-69
2023/08/23 11:01:55;;;;;;;10.27;4.15;;;;;;;;;;5017195;28;20750;-69
2023/08/23 11:04:20;;;;;;;8.68;3.70;;;;;;;;;;5014444;28;20038;-69
2023/08/23 11:06:46;;;;;;;8.52;3.47;;;;;;;;;;5007860;28;20791;-69
2023/08/23 11:09:11;;;;;;;8.55;3.22;;;;;;;;;;5016750;28;20040;-69
2023/08/23 11:11:37;;;;;;;5.93;3.50;;;;;;;;;;5016334;28;20574;-69
2023/08/23 11:14:03;;;;;;;6.75;2.97;;;;;;;;;;5011036;28;20566;-69
2023/08/23 11:16:28;;;;;;;5.68;3.33;;;;;;;;;;4989287;28;20479;-69
2023/08/23 11:18:54;;;;;;;7.25;3.80;;;;;;;;;;4997010;28;20031;-69
2023/08/23 11:21:19;;;;;;;7.28;3.70;;;;;;;;;;4994544;28;20037;-71
2023/08/23 11:23:45;;;;;;;5.15;3.08;;;;;;;;;;4992707;28;20033;-69
2023/08/23 11:26:10;;;;;;;5.68;2.85;;;;;;;;;;4993173;28;20059;-69
2023/08/23 11:28:36;;;;;;;5.45;3.25;;;;;;;;;;4978214;28;20034;-66
2023/08/23 11:31:07;;;;;;;5.53;2.95;;;;;;;;;;5003219;28;20041;-69
2023/08/23 11:33:33;;;;;;;4.18;2.88;;;;;;;;;;5018330;28;20048;-68
2023/08/23 11:36:00;;;;;;;4.70;2.90;;;;;;;;;;5012746;28;20026;-68
2023/08/23 11:38:29;;;;;;;6.68;2.83;;;;;;;;;;5018490;28;20290;-68
2023/08/23 11:40:54;;;;;;;5.57;3.08;;;;;;;;;;5011671;28;20048;-68
2023/08/23 11:43:20;;;;;;;6.22;3.22;;;;;;;;;;5011781;28;20037;-69
2023/08/23 11:45:46;;;;;;;6.03;2.72;;;;;;;;;;5018281;28;20044;-68
2023/08/23 11:48:12;;;;;;;6.95;3.40;;;;;;;;;;5013488;28;20494;-68
2023/08/23 11:50:40;;;;;;;5.07;2.40;;;;;;;;;;5017597;28;20033;-68
2023/08/23 11:53:06;;;;;;;3.35;2.42;;;;;;;;;;5015253;28;20044;-69
2023/08/23 11:55:33;;;;;;;5.30;2.95;;;;;;;;;;5016934;28;20913;-69
2023/08/23 11:57:59;;;;;;;4.45;2.50;;;;;;;;;;5017723;28;20046;-68
2023/08/23 12:00:25;;;;;;;6.40;2.75;;;;;;;;;;5013651;28;20068;-68
2023/08/23 12:02:52;;;;;;;7.30;2.78;;;;;;;;;;5011221;28;20033;-69
2023/08/23 12:05:19;;;;;;;5.78;2.53;;;;;;;;;;5012738;28;20112;-68
2023/08/23 12:07:47;;;;;;;11.23;2.70;;;;;;;;;;5005125;28;20692;-68
2023/08/23 12:10:12;;;;;;;4.15;2.40;;;;;;;;;;5004227;28;20045;-68
2023/08/23 12:12:38;;;;;;;5.10;2.60;;;;;;;;;;5018116;28;20077;-68
2023/08/23 12:15:07;;;;;;;5.22;2.55;;;;;;;;;;5017623;28;20071;-69
2023/08/23 12:17:33;;;;;;;5.38;2.47;;;;;;;;;;4999351;28;20033;-68
2023/08/23 12:19:59;;;;;;;3.80;2.60;;;;;;;;;;5008907;28;20551;-68
2023/08/23 12:22:24;;;;;;;9.65;2.63;;;;;;;;;;5013611;28;20050;-68
2023/08/23 12:24:50;;;;;;;4.72;2.30;;;;;;;;;;4992857;28;20042;-68
2023/08/23 12:27:15;;;;;;;4.30;2.50;;;;;;;;;;5005417;28;20545;-68
2023/08/23 12:29:41;;;;;;;9.13;2.88;;;;;;;;;;5005368;28;20149;-70
2023/08/23 12:32:09;;;;;;;5.05;2.05;;;;;;;;;;5023026;28;20038;-68
2023/08/23 12:34:35;;;;;;;3.92;2.20;;;;;;;;;;5024769;28;20033;-68
2023/08/23 12:37:00;;;;;;;7.00;2.65;;;;;;;;;;5020706;28;20597;-69
2023/08/23 12:39:27;;;;;;;4.45;2.42;;;;;;;;;;5013435;28;20033;-68
2023/08/23 12:41:52;;;;;;;4.82;2.33;;;;;;;;;;5009657;28;20158;-68
2023/08/23 12:44:18;;;;;;;5.53;2.40;;;;;;;;;;5015385;28;20028;-69
2023/08/23 12:46:44;;;;;;;6.13;2.38;;;;;;;;;;5022865;28;20073;-69
2023/08/23 12:49:12;;;;;;;6.50;2.55;;;;;;;;;;5004964;28;20037;-69
2023/08/23 12:51:41;;;;;;;24.65;9.20;;;;;;;;;;4997267;28;20099;-68
2023/08/23 12:54:06;;;;;;;4.13;2.47;;;;;;;;;;5014632;28;20469;-68
2023/08/23 12:56:34;;;;;;;3.35;2.45;;;;;;;;;;5012455;28;20033;-68
2023/08/23 12:58:59;;;;;;;3.78;2.10;;;;;;;;;;5016699;28;20033;-69
2023/08/23 13:01:25;;;;;;;9.63;2.95;;;;;;;;;;5016744;28;20048;-69
2023/08/23 13:03:50;;;;;;;3.25;2.10;;;;;;;;;;5023591;28;20029;-69
2023/08/23 13:06:16;;;;;;;6.63;2.22;;;;;;;;;;5010023;28;20044;-69
2023/08/23 13:08:41;;;;;;;6.03;2.60;;;;;;;;;;5024056;28;20026;-69
2023/08/23 13:11:07;;;;;;;5.15;2.03;;;;;;;;;;5023514;28;20033;-69
2023/08/23 13:13:32;;;;;;;5.15;2.60;;;;;;;;;;5021777;28;20042;-69
2023/08/23 13:15:57;;;;;;;6.47;2.30;;;;;;;;;;5021609;28;20037;-69
2023/08/23 13:18:23;;;;;;;4.15;2.15;;;;;;;;;;5024062;28;20037;-69
2023/08/23 13:20:48;;;;;;;5.40;2.83;;;;;;;;;;5023553;28;20025;-68
2023/08/23 13:23:14;;;;;;;5.22;2.47;;;;;;;;;;5023626;28;20029;-69
2023/08/23 13:25:39;;;;;;;3.35;1.90;;;;;;;;;;5023778;28;20045;-69
2023/08/23 13:28:04;;;;;;;3.65;2.22;;;;;;;;;;5023902;28;20029;-69
2023/08/23 13:30:30;;;;;;;5.55;2.58;;;;;;;;;;5022503;28;20045;-68
2023/08/23 13:32:56;;;;;;;6.35;1.80;;;;;;;;;;5023617;28;20090;-69
2023/08/23 13:35:21;;;;;;;3.38;2.17;;;;;;;;;;5023619;28;20764;-69
2023/08/23 13:37:47;;;;;;;3.20;1.90;;;;;;;;;;5010806;28;20265;-69
2023/08/23 13:40:12;;;;;;;4.95;2.25;;;;;;;;;;5022985;28;20054;-69
2023/08/23 13:42:38;;;;;;;5.55;2.28;;;;;;;;;;5023766;28;20132;-69
2023/08/23 13:45:05;;;;;;;3.75;2.28;;;;;;;;;;5005341;28;20450;-69
2023/08/23 13:47:31;;;;;;;3.92;2.00;;;;;;;;;;5024817;28;20036;-69
2023/08/23 13:49:56;;;;;;;4.80;2.33;;;;;;;;;;5005520;28;20046;-69
2023/08/23 13:52:21;;;;;;;2.53;1.90;;;;;;;;;;5008015;28;20068;-69
2023/08/23 13:54:47;;;;;;;4.00;2.28;;;;;;;;;;5003939;28;20068;-69
2023/08/23 13:57:12;;;;;;;3.55;2.00;;;;;;;;;;5003421;28;20034;-69
2023/08/23 13:59:38;;;;;;;10.70;3.88;;;;;;;;;;5001886;28;20035;-68
2023/08/23 14:02:04;;;;;;;3.83;2.20;;;;;;;;;;5000251;28;20088;-69
2023/08/23 14:04:32;;;;;;;3.35;2.15;;;;;;;;;;5002507;28;20053;-69
2023/08/23 14:06:57;;;;;;;3.63;2.08;;;;;;;;;;5002019;28;20704;-68
2023/08/23 14:09:23;;;;;;;3.70;1.98;;;;;;;;;;5001005;28;20046;-69
2023/08/23 14:11:56;;;;;;;3.05;2.33;;;;;;;;;;5003557;28;20493;-69
2023/08/23 14:14:21;;;;;;;;;;;;;;;;;;4991204;28;20411;-68
2023/08/23 14:16:47;;;;;;;3.35;1.90;;;;;;;;;;5017516;28;19916;-69
2023/08/23 14:19:12;;;;;;;2.47;1.90;;;;;;;;;;5009639;28;20471;-68
2023/08/23 14:21:38;;;;;;;4.35;2.10;;;;;;;;;;4995527;28;20048;-69
2023/08/23 14:24:03;;;;;;;2.90;2.30;;;;;;;;;;4991671;28;20033;-69
2023/08/23 14:26:29;;;;;;;3.40;2.20;;;;;;;;;;4999102;28;20029;-69
2023/08/23 14:28:54;;;;;;;4.15;2.25;;;;;;;;;;4998864;28;20034;-68